Castillo De Trujillo — ECGD — position and weather

sailwx.info

Track history (hours):
 
Tides and Currents Weather Stations Pressure Air Temp Water Temp Dewpoint Dewpoint Depression Visibility Wind Speed Wind Dir Waves Ship Positions

Castillo De Trujillo

Last reported at 2017-Dec-18 14:28 UTC. Time now 2017-Dec-18 14:57 UTC.
Position N 43°22' W 003°06'.

Length 182 m; draft 7.3 m.

Type: Tanker. MMSI: 224432000.

Date/timePositionNaut miles runAvg speedWind from/ knotsBaromVisibWave heightAir tempDewpointWater temp
2017-Dec-18 14:28N 43°22' W 003°06'0 0.0
2017-Dec-18 13:58N 43°22' W 003°06'0 0.0
2017-Dec-18 13:28N 43°22' W 003°06'0 0.0
2017-Dec-18 12:58N 43°22' W 003°06'0 0.0
2017-Dec-18 12:28N 43°22' W 003°06'0 0.0
2017-Dec-18 11:58N 43°22' W 003°06'0 0.0
2017-Dec-18 11:28N 43°22' W 003°06'0 0.0
2017-Dec-18 10:58N 43°22' W 003°06'0 0.0
2017-Dec-18 10:28N 43°22' W 003°06'0 0.0
2017-Dec-18 09:58N 43°22' W 003°06'0 0.0
2017-Dec-18 09:28N 43°22' W 003°06'0 0.0
2017-Dec-18 08:58N 43°22' W 003°06'0 0.0
2017-Dec-18 08:28N 43°22' W 003°06'0 0.0
2017-Dec-18 07:58N 43°22' W 003°06'0 0.0
2017-Dec-18 07:28N 43°22' W 003°06'0 0.1
2017-Dec-18 07:00N 43°22' W 003°06'1 2.2
2017-Dec-18 06:30N 43°23' W 003°05'2 3.0
2017-Dec-18 05:59N 43°24' W 003°07'0 0.1
2017-Dec-18 05:29N 43°24' W 003°06'0 0.0
2017-Dec-18 04:59N 43°24' W 003°06'0 0.0
2017-Dec-18 04:26N 43°24' W 003°06'0 0.0
2017-Dec-18 03:59N 43°24' W 003°06'0 0.0
2017-Dec-18 03:26N 43°24' W 003°06'0 0.0
2017-Dec-18 02:56N 43°24' W 003°06'0 0.0
2017-Dec-18 02:29N 43°24' W 003°06'0 0.0
2017-Dec-18 01:59N 43°24' W 003°06'0 0.0
2017-Dec-18 01:29N 43°24' W 003°06'0 0.0
2017-Dec-18 00:59N 43°24' W 003°06'0 0.0
2017-Dec-18 00:29N 43°24' W 003°06'0 0.0
2017-Dec-17 23:56N 43°24' W 003°06'0 0.0
2017-Dec-17 23:29N 43°24' W 003°06'0 0.0
2017-Dec-17 22:59N 43°24' W 003°06'0 0.0
2017-Dec-17 22:29N 43°24' W 003°06'0 0.1
2017-Dec-17 21:59N 43°23' W 003°06'0 0.0
2017-Dec-17 21:26N 43°23' W 003°06'0 0.0
2017-Dec-17 20:59N 43°23' W 003°06'0 0.0
2017-Dec-17 20:29N 43°23' W 003°06'0 0.8
2017-Dec-17 20:00N 43°24' W 003°07'4 8.0
2017-Dec-17 19:31N 43°26' W 003°11'713.4
2017-Dec-17 19:00N 43°30' W 003°19'713.4
2017-Dec-17 18:30N 43°34' W 003°27'612.8
2017-Dec-17 18:01N 43°36' W 003°35'713.2
2017-Dec-17 17:30N 43°36' W 003°44'713.4
2017-Dec-17 17:01N 43°36' W 003°53'5513.3
2017-Dec-17 12:53N 43°36' W 005°09'813.2
2017-Dec-17 12:15N 43°36' W 005°20'313.5
2017-Dec-17 12:00N 43°36' W 005°25'713.4
2017-Dec-17 11:30N 43°36' W 005°34'510.4
2017-Dec-17 11:00N 43°34' W 005°41'1 1.6
2017-Dec-17 10:30N 43°33' W 005°41'0 0.0
2017-Dec-17 10:00N 43°33' W 005°41'0 0.0
2017-Dec-17 09:30N 43°33' W 005°41'0 0.0
2017-Dec-17 09:00N 43°33' W 005°41'0 0.0
2017-Dec-17 08:30N 43°33' W 005°41'0 0.0
2017-Dec-17 07:54N 43°33' W 005°41'0 0.0
2017-Dec-17 07:30N 43°33' W 005°41'0 0.0
2017-Dec-17 07:00N 43°33' W 005°41'0 0.0
2017-Dec-17 06:30N 43°33' W 005°41'0 0.0
2017-Dec-17 06:00N 43°33' W 005°41'0 0.0
2017-Dec-17 05:30N 43°33' W 005°41'0 0.0
2017-Dec-17 05:00N 43°33' W 005°41'0 0.0
2017-Dec-17 04:30N 43°33' W 005°41'0 0.0
2017-Dec-17 04:00N 43°33' W 005°41'0 0.0
2017-Dec-17 03:30N 43°33' W 005°41'0 0.0
2017-Dec-17 03:00N 43°33' W 005°41'0 0.0
2017-Dec-17 02:30N 43°33' W 005°41'0 0.0
2017-Dec-17 02:00N 43°33' W 005°41'0 0.0
2017-Dec-17 01:30N 43°33' W 005°41'0 0.0
2017-Dec-16 17:30N 43°33' W 005°41'0 0.0
2017-Dec-16 17:00N 43°33' W 005°41'0 0.0
2017-Dec-16 16:30N 43°33' W 005°41'0 0.0
2017-Dec-16 16:00N 43°33' W 005°41'0 0.0
2017-Dec-16 15:30N 43°33' W 005°41'0 0.0
2017-Dec-16 15:00N 43°33' W 005°41'0 0.0
2017-Dec-16 14:30N 43°33' W 005°41'0 0.0
2017-Dec-16 14:00N 43°33' W 005°41'0 0.0
2017-Dec-16 13:30N 43°33' W 005°41'0 0.0
2017-Dec-16 13:00N 43°33' W 005°41'0 0.0
2017-Dec-16 12:30N 43°33' W 005°41'0 0.0
2017-Dec-16 12:00N 43°33' W 005°41'0 0.0
2017-Dec-16 08:42N 43°33' W 005°41'0 0.0
2017-Dec-16 08:30N 43°33' W 005°41'0 0.6
2017-Dec-16 08:00N 43°34' W 005°41'3 6.0
2017-Dec-16 07:30N 43°37' W 005°40'3 5.2
2017-Dec-16 07:00N 43°39' W 005°40'1 2.2
2017-Dec-16 06:30N 43°39' W 005°38'3 4.4
2017-Dec-16 05:53N 43°38' W 005°34'2 6.4
2017-Dec-16 05:30N 43°37' W 005°31'2 4.7
2017-Dec-16 05:00N 43°38' W 005°28'1 2.9
2017-Dec-16 04:30N 43°38' W 005°26'2 3.3
2017-Dec-16 04:00N 43°38' W 005°24'1 1.0
2017-Dec-16 02:54N 43°38' W 005°23'2 4.7
2017-Dec-16 02:30N 43°39' W 005°25'2 4.5
2017-Dec-16 02:00N 43°39' W 005°28'2 4.6
2017-Dec-16 01:30N 43°40' W 005°31'2 4.6
2017-Dec-16 01:00N 43°41' W 005°34'2 4.5
2017-Dec-16 00:30N 43°42' W 005°37'2 4.4
2017-Dec-16 00:00N 43°42' W 005°40'6 1.9
2017-Dec-15 21:05N 43°43' W 005°32'0 2.2
2017-Dec-15 20:58N 43°43' W 005°32'1 2.0
2017-Dec-15 20:30N 43°42' W 005°30'1 2.1
2017-Dec-15 20:00N 43°42' W 005°29'1 2.0
2017-Dec-15 19:30N 43°42' W 005°28'3 2.7
2017-Dec-15 18:15N 43°41' W 005°23'10 2.8
2017-Dec-15 14:44N 43°37' W 005°11'1 2.5
2017-Dec-15 14:19N 43°36' W 005°10'1 2.6
2017-Dec-15 14:00N 43°36' W 005°09'2 2.3
2017-Dec-15 13:04N 43°35' W 005°06'2 0.6
2017-Dec-15 09:43N 43°34' W 005°08'3 5.7
2017-Dec-15 09:14N 43°35' W 005°12'1 5.8
2017-Dec-15 09:00N 43°35' W 005°14'3 5.9
2017-Dec-15 08:25N 43°37' W 005°18'2 5.9
2017-Dec-15 08:00N 43°38' W 005°21'3 5.8
2017-Dec-15 07:29N 43°39' W 005°25'3 5.4
2017-Dec-15 07:00N 43°40' W 005°28'3 5.4
2017-Dec-15 06:30N 43°41' W 005°32'3 5.3
2017-Dec-15 06:00N 43°41' W 005°35'3 5.3
2017-Dec-15 05:30N 43°42' W 005°39'2 4.3
2017-Dec-15 05:00N 43°40' W 005°39'4 6.9
2017-Dec-15 04:26N 43°39' W 005°33'3 6.5
2017-Dec-15 03:59N 43°38' W 005°29'10 6.5
2017-Dec-15 02:30N 43°38' W 005°16'61 6.5
2017-Dec-14 16:59N 43°38' W 003°51'3 6.9
2017-Dec-14 16:30N 43°38' W 003°47'3 6.8
2017-Dec-14 16:00N 43°38' W 003°42'8 7.5
2017-Dec-14 15:00N 43°36' W 003°32'4 7.5
2017-Dec-14 14:30N 43°34' W 003°28'4 7.8
2017-Dec-14 14:00N 43°32' W 003°23'4 8.1
2017-Dec-14 13:30N 43°30' W 003°18'5 9.2
2017-Dec-14 13:00N 43°27' W 003°13'5 9.5
2017-Dec-14 12:30N 43°25' W 003°07'3 6.4
2017-Dec-14 12:00N 43°22' W 003°06'0 0.4
2017-Dec-14 11:28N 43°22' W 003°06'0 0.0
2017-Dec-14 10:58N 43°22' W 003°06'0 0.0
2017-Dec-14 10:28N 43°22' W 003°06'0 0.0
2017-Dec-14 09:58N 43°22' W 003°06'0 0.0
2017-Dec-14 09:28N 43°22' W 003°06'0 0.0
2017-Dec-14 08:58N 43°22' W 003°06'0 0.0
2017-Dec-14 08:28N 43°22' W 003°06'0 0.0
2017-Dec-14 07:58N 43°22' W 003°06'0 0.0
2017-Dec-14 07:28N 43°22' W 003°06'0 0.0
2017-Dec-14 06:58N 43°22' W 003°06'0 0.0
2017-Dec-14 06:28N 43°22' W 003°06'0 0.0
2017-Dec-14 05:58N 43°22' W 003°06'0 0.0
2017-Dec-14 05:28N 43°22' W 003°06'0 0.0
2017-Dec-14 04:58N 43°22' W 003°06'0 0.0
2017-Dec-14 04:28N 43°22' W 003°06'0 0.0
2017-Dec-14 03:58N 43°22' W 003°06'0 0.0
2017-Dec-14 03:28N 43°22' W 003°06'0 0.0
2017-Dec-14 02:58N 43°22' W 003°06'0 0.0
2017-Dec-14 02:28N 43°22' W 003°06'0 0.0
2017-Dec-14 01:58N 43°22' W 003°06'0 0.0
2017-Dec-14 01:28N 43°22' W 003°06'0 0.0
2017-Dec-14 00:58N 43°22' W 003°06'0 0.0
2017-Dec-14 00:28N 43°22' W 003°06'0 0.0
2017-Dec-13 23:58N 43°22' W 003°06'0 0.0
2017-Dec-13 23:28N 43°22' W 003°06'0 0.0
2017-Dec-13 22:58N 43°22' W 003°06'0 0.0
2017-Dec-13 22:28N 43°22' W 003°06'0 0.0
2017-Dec-13 21:58N 43°22' W 003°06'0 0.0
2017-Dec-13 21:28N 43°22' W 003°06'0 0.0
2017-Dec-13 20:58N 43°22' W 003°06'0 0.0
2017-Dec-13 20:28N 43°22' W 003°06'0 0.0
2017-Dec-13 19:58N 43°22' W 003°06'0 0.0
2017-Dec-13 19:28N 43°22' W 003°06'0 0.0
2017-Dec-13 18:58N 43°22' W 003°06'0 0.0
2017-Dec-13 18:28N 43°22' W 003°06'0 0.0
2017-Dec-13 17:58N 43°22' W 003°06'0 0.0
2017-Dec-13 17:28N 43°22' W 003°06'0 0.0
2017-Dec-13 16:58N 43°22' W 003°06'0 0.0
2017-Dec-13 16:28N 43°22' W 003°06'0 0.0
2017-Dec-13 15:58N 43°22' W 003°06'0 0.0
2017-Dec-13 15:28N 43°22' W 003°06'0 0.0
2017-Dec-13 14:58N 43°22' W 003°06'0 0.0
2017-Dec-13 14:28N 43°22' W 003°06'0 0.0
2017-Dec-13 13:58N 43°22' W 003°06'0 0.0
2017-Dec-13 13:28N 43°22' W 003°06'0 0.0
2017-Dec-13 12:58N 43°22' W 003°06'0 0.0
2017-Dec-13 12:28N 43°22' W 003°06'0 0.0
2017-Dec-13 11:58N 43°22' W 003°06'0 0.0
2017-Dec-13 11:28N 43°22' W 003°06'0 0.0
2017-Dec-13 10:58N 43°22' W 003°06'0 0.0
2017-Dec-13 10:28N 43°22' W 003°06'0 0.0
2017-Dec-13 09:58N 43°22' W 003°06'0 0.0
2017-Dec-13 09:28N 43°22' W 003°06'0 0.0
2017-Dec-13 08:58N 43°22' W 003°06'0 0.0
2017-Dec-13 08:28N 43°22' W 003°06'0 0.0
2017-Dec-13 07:58N 43°22' W 003°06'0 0.0
2017-Dec-13 07:28N 43°22' W 003°06'0 0.0
2017-Dec-13 06:58N 43°22' W 003°06'0 0.0
2017-Dec-13 06:28N 43°22' W 003°06'0 0.0
2017-Dec-13 05:58N 43°22' W 003°06'0 0.0
2017-Dec-13 05:28N 43°22' W 003°06'0 0.0
2017-Dec-13 04:58N 43°22' W 003°06'0 0.0
2017-Dec-13 04:28N 43°22' W 003°06'0 0.0
2017-Dec-13 03:58N 43°22' W 003°06'0 0.0
2017-Dec-13 03:28N 43°22' W 003°06'0 0.0
2017-Dec-13 02:58N 43°22' W 003°06'0 0.0
2017-Dec-13 02:28N 43°22' W 003°06'0 0.0
2017-Dec-13 01:58N 43°22' W 003°06'0 0.0
2017-Dec-13 01:28N 43°22' W 003°06'0 0.0
2017-Dec-13 00:58N 43°22' W 003°06'0 0.0
2017-Dec-13 00:28N 43°22' W 003°06'0 0.0
2017-Dec-12 23:58N 43°22' W 003°06'0 0.0
2017-Dec-12 23:28N 43°22' W 003°06'0 0.0
2017-Dec-12 22:58N 43°22' W 003°06'0 0.0
2017-Dec-12 22:28N 43°22' W 003°06'0 0.0
2017-Dec-12 21:58N 43°22' W 003°06'0 0.0
2017-Dec-12 21:28N 43°22' W 003°06'0 0.0
2017-Dec-12 20:58N 43°22' W 003°06'0 0.0
2017-Dec-12 20:28N 43°22' W 003°06'0 0.0
2017-Dec-12 19:58N 43°22' W 003°06'0 0.0
2017-Dec-12 19:28N 43°22' W 003°06'0 0.0
2017-Dec-12 18:58N 43°22' W 003°06'0 0.0
2017-Dec-12 18:28N 43°22' W 003°06'0 0.0
2017-Dec-12 17:58N 43°22' W 003°06'0 0.0
2017-Dec-12 17:28N 43°22' W 003°06'0 0.0
2017-Dec-12 16:58N 43°22' W 003°06'0 0.0
2017-Dec-12 16:28N 43°22' W 003°06'0 0.0
2017-Dec-12 15:58N 43°22' W 003°06'0 0.0
2017-Dec-12 15:28N 43°22' W 003°06'0 0.0
2017-Dec-12 14:58N 43°22' W 003°06'0 0.0
2017-Dec-12 14:28N 43°22' W 003°06'0 0.0
2017-Dec-12 13:58N 43°22' W 003°06'0 0.0
2017-Dec-12 13:28N 43°22' W 003°06'0 0.0
2017-Dec-12 12:58N 43°22' W 003°06'0 0.0
2017-Dec-12 12:30N 43°22' W 003°06'0 0.0
2017-Dec-12 12:00N 43°22' W 003°06'1 2.2
2017-Dec-12 11:30N 43°23' W 003°05'5 9.3
2017-Dec-12 11:00N 43°27' W 003°05'2 4.2
2017-Dec-12 10:30N 43°30' W 003°05'1 2.8
2017-Dec-12 10:00N 43°29' W 003°03'1 1.5
2017-Dec-12 09:29N 43°30' W 003°02'2 4.8
2017-Dec-12 09:00N 43°31' W 003°05'3 5.0
2017-Dec-12 08:30N 43°32' W 003°08'3 5.1
2017-Dec-12 08:00N 43°33' W 003°11'3 5.1
2017-Dec-12 07:30N 43°34' W 003°14'2 4.8
2017-Dec-12 07:00N 43°35' W 003°17'2 4.9
2017-Dec-12 06:30N 43°36' W 003°21'2 4.9
2017-Dec-12 06:00N 43°37' W 003°24'2 4.9
2017-Dec-12 05:30N 43°38' W 003°27'2 3.2
2017-Dec-12 05:00N 43°38' W 003°29'1 2.8
2017-Dec-12 04:30N 43°37' W 003°27'1 2.7
2017-Dec-12 04:00N 43°37' W 003°26'1 2.5
2017-Dec-12 03:30N 43°36' W 003°24'1 2.3
2017-Dec-12 03:00N 43°36' W 003°23'1 2.1
2017-Dec-12 02:30N 43°35' W 003°21'1 1.9
2017-Dec-12 02:00N 43°35' W 003°20'1 2.1
2017-Dec-12 01:30N 43°34' W 003°19'1 1.7
2017-Dec-12 01:00N 43°34' W 003°18'1 1.7
2017-Dec-12 00:30N 43°34' W 003°17'1 2.1
2017-Dec-12 00:00N 43°34' W 003°15'1 1.6
2017-Dec-11 23:30N 43°33' W 003°14'1 1.6
2017-Dec-11 23:00N 43°33' W 003°13'1 1.8
2017-Dec-11 22:30N 43°33' W 003°12'1 2.2
2017-Dec-11 22:00N 43°32' W 003°11'1 2.3
2017-Dec-11 21:30N 43°32' W 003°09'1 2.1
2017-Dec-11 20:57N 43°31' W 003°08'1 1.8
2017-Dec-11 20:25N 43°31' W 003°07'1 1.8
2017-Dec-11 20:00N 43°31' W 003°06'1 1.9
2017-Dec-11 19:29N 43°31' W 003°04'1 2.0
2017-Dec-11 18:59N 43°30' W 003°03'1 2.0
2017-Dec-11 18:30N 43°30' W 003°02'2 2.2
2017-Dec-11 17:34N 43°28' W 003°02'0 5.3
2017-Dec-11 17:30N 43°28' W 003°03'3 5.6
2017-Dec-11 17:00N 43°27' W 003°06'4 7.9
2017-Dec-11 16:30N 43°27' W 003°12'713.5
2017-Dec-11 16:00N 43°30' W 003°20'713.4
2017-Dec-11 15:30N 43°34' W 003°27'612.8
2017-Dec-11 15:00N 43°36' W 003°36'713.2
2017-Dec-11 14:30N 43°36' W 003°45'612.9
2017-Dec-11 14:00N 43°36' W 003°54'813.0
2017-Dec-11 13:23N 43°36' W 004°05'512.7
2017-Dec-11 13:00N 43°36' W 004°12'3312.5
2017-Dec-11 10:20N 43°36' W 004°58'612.7
2017-Dec-11 09:50N 43°36' W 005°06'512.7
2017-Dec-11 09:28N 43°36' W 005°13'612.9
2017-Dec-11 08:58N 43°36' W 005°22'612.7
2017-Dec-11 08:29N 43°36' W 005°30'612.4
2017-Dec-11 08:00N 43°34' W 005°38'3 4.9
2017-Dec-11 07:30N 43°33' W 005°41'0 0.3
2017-Dec-11 06:59N 43°33' W 005°41'0 0.0
2017-Dec-11 06:29N 43°33' W 005°41'0 0.0
2017-Dec-11 05:59N 43°33' W 005°41'0 0.0
2017-Dec-11 05:29N 43°33' W 005°41'0 0.0
2017-Dec-11 04:59N 43°33' W 005°41'0 0.0
2017-Dec-11 04:29N 43°33' W 005°41'0 0.0
2017-Dec-11 03:59N 43°33' W 005°41'0 0.0
2017-Dec-11 03:29N 43°33' W 005°41'0 0.0
2017-Dec-11 02:59N 43°33' W 005°41'0 0.0
2017-Dec-11 02:30N 43°33' W 005°41'0 0.0
2017-Dec-11 02:00N 43°33' W 005°41'0 0.0
2017-Dec-11 01:30N 43°33' W 005°41'0 0.0
2017-Dec-11 01:00N 43°33' W 005°41'0 0.0
2017-Dec-11 00:18N 43°33' W 005°41'0 0.0
2017-Dec-10 23:42N 43°33' W 005°41'0 0.0
2017-Dec-10 21:18N 43°33' W 005°41'0 0.0
2017-Dec-10 21:00N 43°33' W 005°41'0 0.0
2017-Dec-10 20:30N 43°33' W 005°41'0 0.0
2017-Dec-10 20:00N 43°33' W 005°41'0 0.0
2017-Dec-10 19:30N 43°33' W 005°41'0 0.0
2017-Dec-10 19:00N 43°33' W 005°41'0 0.0
2017-Dec-10 18:24N 43°33' W 005°41'0 0.0
2017-Dec-10 17:48N 43°33' W 005°41'0 0.0
2017-Dec-10 17:30N 43°33' W 005°41'0 0.0
2017-Dec-10 14:48N 43°33' W 005°41'0 0.0
2017-Dec-10 14:30N 43°33' W 005°41'0 0.0
2017-Dec-10 14:00N 43°33' W 005°41'0 0.0
2017-Dec-10 13:30N 43°33' W 005°41'0 0.0
2017-Dec-10 13:00N 43°33' W 005°41'0 0.0
2017-Dec-10 12:30N 43°33' W 005°41'0 0.0
2017-Dec-10 12:00N 43°33' W 005°41'0 0.0
2017-Dec-10 11:30N 43°33' W 005°41'0 0.0
2017-Dec-10 11:00N 43°33' W 005°41'0 0.0
2017-Dec-10 10:30N 43°33' W 005°41'0 0.0
2017-Dec-10 10:00N 43°33' W 005°41'0 0.0
2017-Dec-10 09:24N 43°33' W 005°41'0 0.0
2017-Dec-10 08:54N 43°33' W 005°41'0 0.0
2017-Dec-10 08:24N 43°33' W 005°41'0 0.0
2017-Dec-10 07:54N 43°33' W 005°41'0 0.0
2017-Dec-10 07:30N 43°33' W 005°41'0 0.0
2017-Dec-10 07:00N 43°33' W 005°41'0 0.0
2017-Dec-10 06:12N 43°33' W 005°41'0 0.0
2017-Dec-10 06:00N 43°33' W 005°41'0 0.0
2017-Dec-10 05:30N 43°33' W 005°41'0 0.0
2017-Dec-10 05:00N 43°33' W 005°41'0 0.0
2017-Dec-10 04:30N 43°33' W 005°41'0 0.0
2017-Dec-10 04:00N 43°33' W 005°41'0 0.0
2017-Dec-10 03:24N 43°33' W 005°41'0 0.0
2017-Dec-10 03:00N 43°33' W 005°41'0 0.0
2017-Dec-10 02:30N 43°33' W 005°41'0 0.0
2017-Dec-10 02:00N 43°33' W 005°41'0 0.0
2017-Dec-10 01:30N 43°33' W 005°41'0 0.0
2017-Dec-10 01:00N 43°33' W 005°41'0 0.0
2017-Dec-09 20:30N 43°33' W 005°41'0 0.0
2017-Dec-09 19:54N 43°33' W 005°41'0 0.0
2017-Dec-09 19:24N 43°33' W 005°41'0 0.0
2017-Dec-09 19:00N 43°33' W 005°41'0 0.0
2017-Dec-09 18:30N 43°33' W 005°41'0 0.0
2017-Dec-09 18:00N 43°33' W 005°41'0 0.0
2017-Dec-09 17:30N 43°33' W 005°41'0 0.0
2017-Dec-09 16:42N 43°33' W 005°41'0 0.0
2017-Dec-09 16:30N 43°33' W 005°41'0 0.0
2017-Dec-09 16:00N 43°33' W 005°41'0 0.0
2017-Dec-09 15:30N 43°33' W 005°41'0 0.0
2017-Dec-09 15:00N 43°33' W 005°41'0 0.0
2017-Dec-09 13:54N 43°33' W 005°41'0 0.0
2017-Dec-09 13:30N 43°33' W 005°41'0 0.0
2017-Dec-09 13:00N 43°33' W 005°41'0 0.0
2017-Dec-09 12:30N 43°33' W 005°41'0 0.0
2017-Dec-09 12:00N 43°33' W 005°41'0 0.0
2017-Dec-09 11:30N 43°33' W 005°41'0 0.0
2017-Dec-09 11:00N 43°33' W 005°41'0 0.0
2017-Dec-09 10:30N 43°33' W 005°41'0 0.0
2017-Dec-09 10:00N 43°33' W 005°41'0 0.0
2017-Dec-09 09:24N 43°33' W 005°41'0 0.0
2017-Dec-09 09:00N 43°33' W 005°41'1 2.2
2017-Dec-09 08:30N 43°34' W 005°40'4 7.8
2017-Dec-09 08:00N 43°38' W 005°41'5 9.2
2017-Dec-09 07:30N 43°41' W 005°45'612.1
2017-Dec-09 07:00N 43°45' W 005°52'612.6
2017-Dec-09 06:30N 43°46' W 006°00'712.7
2017-Dec-09 06:00N 43°46' W 006°09'712.4
2017-Dec-09 05:28N 43°47' W 006°18'4012.0
2017-Dec-09 02:09N 43°51' W 007°13'212.0
2017-Dec-09 01:58N 43°52' W 007°16'612.0
2017-Dec-09 01:30N 43°52' W 007°24'611.9
2017-Dec-09 01:01N 43°53' W 007°32'612.0
2017-Dec-09 00:31N 43°53' W 007°40'612.0
2017-Dec-08 23:59N 43°54' W 007°49'712.1
2017-Dec-08 23:25N 43°55' W 007°58'711.8
2017-Dec-08 22:51N 43°53' W 008°07'  
Track history (hours):
 
Tides and Currents Weather Stations Pressure Air Temp Water Temp Dewpoint Dewpoint Depression Visibility Wind Speed Wind Dir Waves Ship Positions

Castillo De Trujillo

Last reported at 2017-Dec-18 14:28 UTC. Time now 2017-Dec-18 14:57 UTC.
Position N 43°22' W 003°06'.

Length 182 m; draft 7.3 m.

Type: Tanker. MMSI: 224432000.

Date/timePositionNaut miles runAvg speedWind from/ knotsBaromVisibWave heightAir tempDewpointWater temp
2017-Dec-18 14:28N 43°22' W 003°06'0 0.0
2017-Dec-18 13:58N 43°22' W 003°06'0 0.0
2017-Dec-18 13:28N 43°22' W 003°06'0 0.0
2017-Dec-18 12:58N 43°22' W 003°06'0 0.0
2017-Dec-18 12:28N 43°22' W 003°06'0 0.0
2017-Dec-18 11:58N 43°22' W 003°06'0 0.0
2017-Dec-18 11:28N 43°22' W 003°06'0 0.0
2017-Dec-18 10:58N 43°22' W 003°06'0 0.0
2017-Dec-18 10:28N 43°22' W 003°06'0 0.0
2017-Dec-18 09:58N 43°22' W 003°06'0 0.0
2017-Dec-18 09:28N 43°22' W 003°06'0 0.0
2017-Dec-18 08:58N 43°22' W 003°06'0 0.0
2017-Dec-18 08:28N 43°22' W 003°06'0 0.0
2017-Dec-18 07:58N 43°22' W 003°06'0 0.0
2017-Dec-18 07:28N 43°22' W 003°06'0 0.1
2017-Dec-18 07:00N 43°22' W 003°06'1 2.2
2017-Dec-18 06:30N 43°23' W 003°05'2 3.0
2017-Dec-18 05:59N 43°24' W 003°07'0 0.1
2017-Dec-18 05:29N 43°24' W 003°06'0 0.0
2017-Dec-18 04:59N 43°24' W 003°06'0 0.0
2017-Dec-18 04:26N 43°24' W 003°06'0 0.0
2017-Dec-18 03:59N 43°24' W 003°06'0 0.0
2017-Dec-18 03:26N 43°24' W 003°06'0 0.0
2017-Dec-18 02:56N 43°24' W 003°06'0 0.0
2017-Dec-18 02:29N 43°24' W 003°06'0 0.0
2017-Dec-18 01:59N 43°24' W 003°06'0 0.0
2017-Dec-18 01:29N 43°24' W 003°06'0 0.0
2017-Dec-18 00:59N 43°24' W 003°06'0 0.0
2017-Dec-18 00:29N 43°24' W 003°06'0 0.0
2017-Dec-17 23:56N 43°24' W 003°06'0 0.0
2017-Dec-17 23:29N 43°24' W 003°06'0 0.0
2017-Dec-17 22:59N 43°24' W 003°06'0 0.0
2017-Dec-17 22:29N 43°24' W 003°06'0 0.1
2017-Dec-17 21:59N 43°23' W 003°06'0 0.0
2017-Dec-17 21:26N 43°23' W 003°06'0 0.0
2017-Dec-17 20:59N 43°23' W 003°06'0 0.0
2017-Dec-17 20:29N 43°23' W 003°06'0 0.8
2017-Dec-17 20:00N 43°24' W 003°07'4 8.0
2017-Dec-17 19:31N 43°26' W 003°11'713.4
2017-Dec-17 19:00N 43°30' W 003°19'713.4
2017-Dec-17 18:30N 43°34' W 003°27'612.8
2017-Dec-17 18:01N 43°36' W 003°35'713.2
2017-Dec-17 17:30N 43°36' W 003°44'713.4
2017-Dec-17 17:01N 43°36' W 003°53'5513.3
2017-Dec-17 12:53N 43°36' W 005°09'813.2
2017-Dec-17 12:15N 43°36' W 005°20'313.5
2017-Dec-17 12:00N 43°36' W 005°25'713.4
2017-Dec-17 11:30N 43°36' W 005°34'510.4
2017-Dec-17 11:00N 43°34' W 005°41'1 1.6
2017-Dec-17 10:30N 43°33' W 005°41'0 0.0
2017-Dec-17 10:00N 43°33' W 005°41'0 0.0
2017-Dec-17 09:30N 43°33' W 005°41'0 0.0
2017-Dec-17 09:00N 43°33' W 005°41'0 0.0
2017-Dec-17 08:30N 43°33' W 005°41'0 0.0
2017-Dec-17 07:54N 43°33' W 005°41'0 0.0
2017-Dec-17 07:30N 43°33' W 005°41'0 0.0
2017-Dec-17 07:00N 43°33' W 005°41'0 0.0
2017-Dec-17 06:30N 43°33' W 005°41'0 0.0
2017-Dec-17 06:00N 43°33' W 005°41'0 0.0
2017-Dec-17 05:30N 43°33' W 005°41'0 0.0
2017-Dec-17 05:00N 43°33' W 005°41'0 0.0
2017-Dec-17 04:30N 43°33' W 005°41'0 0.0
2017-Dec-17 04:00N 43°33' W 005°41'0 0.0
2017-Dec-17 03:30N 43°33' W 005°41'0 0.0
2017-Dec-17 03:00N 43°33' W 005°41'0 0.0
2017-Dec-17 02:30N 43°33' W 005°41'0 0.0
2017-Dec-17 02:00N 43°33' W 005°41'0 0.0
2017-Dec-17 01:30N 43°33' W 005°41'0 0.0
2017-Dec-16 17:30N 43°33' W 005°41'0 0.0
2017-Dec-16 17:00N 43°33' W 005°41'0 0.0
2017-Dec-16 16:30N 43°33' W 005°41'0 0.0
2017-Dec-16 16:00N 43°33' W 005°41'0 0.0
2017-Dec-16 15:30N 43°33' W 005°41'0 0.0
2017-Dec-16 15:00N 43°33' W 005°41'0 0.0
2017-Dec-16 14:30N 43°33' W 005°41'0 0.0
2017-Dec-16 14:00N 43°33' W 005°41'0 0.0
2017-Dec-16 13:30N 43°33' W 005°41'0 0.0
2017-Dec-16 13:00N 43°33' W 005°41'0 0.0
2017-Dec-16 12:30N 43°33' W 005°41'0 0.0
2017-Dec-16 12:00N 43°33' W 005°41'0 0.0
2017-Dec-16 08:42N 43°33' W 005°41'0 0.0
2017-Dec-16 08:30N 43°33' W 005°41'0 0.6
2017-Dec-16 08:00N 43°34' W 005°41'3 6.0
2017-Dec-16 07:30N 43°37' W 005°40'3 5.2
2017-Dec-16 07:00N 43°39' W 005°40'1 2.2
2017-Dec-16 06:30N 43°39' W 005°38'3 4.4
2017-Dec-16 05:53N 43°38' W 005°34'2 6.4
2017-Dec-16 05:30N 43°37' W 005°31'2 4.7
2017-Dec-16 05:00N 43°38' W 005°28'1 2.9
2017-Dec-16 04:30N 43°38' W 005°26'2 3.3
2017-Dec-16 04:00N 43°38' W 005°24'1 1.0
2017-Dec-16 02:54N 43°38' W 005°23'2 4.7
2017-Dec-16 02:30N 43°39' W 005°25'2 4.5
2017-Dec-16 02:00N 43°39' W 005°28'2 4.6
2017-Dec-16 01:30N 43°40' W 005°31'2 4.6
2017-Dec-16 01:00N 43°41' W 005°34'2 4.5
2017-Dec-16 00:30N 43°42' W 005°37'2 4.4
2017-Dec-16 00:00N 43°42' W 005°40'6 1.9
2017-Dec-15 21:05N 43°43' W 005°32'0 2.2
2017-Dec-15 20:58N 43°43' W 005°32'1 2.0
2017-Dec-15 20:30N 43°42' W 005°30'1 2.1
2017-Dec-15 20:00N 43°42' W 005°29'1 2.0
2017-Dec-15 19:30N 43°42' W 005°28'3 2.7
2017-Dec-15 18:15N 43°41' W 005°23'10 2.8
2017-Dec-15 14:44N 43°37' W 005°11'1 2.5
2017-Dec-15 14:19N 43°36' W 005°10'1 2.6
2017-Dec-15 14:00N 43°36' W 005°09'2 2.3
2017-Dec-15 13:04N 43°35' W 005°06'2 0.6
2017-Dec-15 09:43N 43°34' W 005°08'3 5.7
2017-Dec-15 09:14N 43°35' W 005°12'1 5.8
2017-Dec-15 09:00N 43°35' W 005°14'3 5.9
2017-Dec-15 08:25N 43°37' W 005°18'2 5.9
2017-Dec-15 08:00N 43°38' W 005°21'3 5.8
2017-Dec-15 07:29N 43°39' W 005°25'3 5.4
2017-Dec-15 07:00N 43°40' W 005°28'3 5.4
2017-Dec-15 06:30N 43°41' W 005°32'3 5.3
2017-Dec-15 06:00N 43°41' W 005°35'3 5.3
2017-Dec-15 05:30N 43°42' W 005°39'2 4.3
2017-Dec-15 05:00N 43°40' W 005°39'4 6.9
2017-Dec-15 04:26N 43°39' W 005°33'3 6.5
2017-Dec-15 03:59N 43°38' W 005°29'10 6.5
2017-Dec-15 02:30N 43°38' W 005°16'61 6.5
2017-Dec-14 16:59N 43°38' W 003°51'3 6.9
2017-Dec-14 16:30N 43°38' W 003°47'3 6.8
2017-Dec-14 16:00N 43°38' W 003°42'8 7.5
2017-Dec-14 15:00N 43°36' W 003°32'4 7.5
2017-Dec-14 14:30N 43°34' W 003°28'4 7.8
2017-Dec-14 14:00N 43°32' W 003°23'4 8.1
2017-Dec-14 13:30N 43°30' W 003°18'5 9.2
2017-Dec-14 13:00N 43°27' W 003°13'5 9.5
2017-Dec-14 12:30N 43°25' W 003°07'3 6.4
2017-Dec-14 12:00N 43°22' W 003°06'0 0.4
2017-Dec-14 11:28N 43°22' W 003°06'0 0.0
2017-Dec-14 10:58N 43°22' W 003°06'0 0.0
2017-Dec-14 10:28N 43°22' W 003°06'0 0.0
2017-Dec-14 09:58N 43°22' W 003°06'0 0.0
2017-Dec-14 09:28N 43°22' W 003°06'0 0.0
2017-Dec-14 08:58N 43°22' W 003°06'0 0.0
2017-Dec-14 08:28N 43°22' W 003°06'0 0.0
2017-Dec-14 07:58N 43°22' W 003°06'0 0.0
2017-Dec-14 07:28N 43°22' W 003°06'0 0.0
2017-Dec-14 06:58N 43°22' W 003°06'0 0.0
2017-Dec-14 06:28N 43°22' W 003°06'0 0.0
2017-Dec-14 05:58N 43°22' W 003°06'0 0.0
2017-Dec-14 05:28N 43°22' W 003°06'0 0.0
2017-Dec-14 04:58N 43°22' W 003°06'0 0.0
2017-Dec-14 04:28N 43°22' W 003°06'0 0.0
2017-Dec-14 03:58N 43°22' W 003°06'0 0.0
2017-Dec-14 03:28N 43°22' W 003°06'0 0.0
2017-Dec-14 02:58N 43°22' W 003°06'0 0.0
2017-Dec-14 02:28N 43°22' W 003°06'0 0.0
2017-Dec-14 01:58N 43°22' W 003°06'0 0.0
2017-Dec-14 01:28N 43°22' W 003°06'0 0.0
2017-Dec-14 00:58N 43°22' W 003°06'0 0.0
2017-Dec-14 00:28N 43°22' W 003°06'0 0.0
2017-Dec-13 23:58N 43°22' W 003°06'0 0.0
2017-Dec-13 23:28N 43°22' W 003°06'0 0.0
2017-Dec-13 22:58N 43°22' W 003°06'0 0.0
2017-Dec-13 22:28N 43°22' W 003°06'0 0.0
2017-Dec-13 21:58N 43°22' W 003°06'0 0.0
2017-Dec-13 21:28N 43°22' W 003°06'0 0.0
2017-Dec-13 20:58N 43°22' W 003°06'0 0.0
2017-Dec-13 20:28N 43°22' W 003°06'0 0.0
2017-Dec-13 19:58N 43°22' W 003°06'0 0.0
2017-Dec-13 19:28N 43°22' W 003°06'0 0.0
2017-Dec-13 18:58N 43°22' W 003°06'0 0.0
2017-Dec-13 18:28N 43°22' W 003°06'0 0.0
2017-Dec-13 17:58N 43°22' W 003°06'0 0.0
2017-Dec-13 17:28N 43°22' W 003°06'0 0.0
2017-Dec-13 16:58N 43°22' W 003°06'0 0.0
2017-Dec-13 16:28N 43°22' W 003°06'0 0.0
2017-Dec-13 15:58N 43°22' W 003°06'0 0.0
2017-Dec-13 15:28N 43°22' W 003°06'0 0.0
2017-Dec-13 14:58N 43°22' W 003°06'0 0.0
2017-Dec-13 14:28N 43°22' W 003°06'0 0.0
2017-Dec-13 13:58N 43°22' W 003°06'0 0.0
2017-Dec-13 13:28N 43°22' W 003°06'0 0.0
2017-Dec-13 12:58N 43°22' W 003°06'0 0.0
2017-Dec-13 12:28N 43°22' W 003°06'0 0.0
2017-Dec-13 11:58N 43°22' W 003°06'0 0.0
2017-Dec-13 11:28N 43°22' W 003°06'0 0.0
2017-Dec-13 10:58N 43°22' W 003°06'0 0.0
2017-Dec-13 10:28N 43°22' W 003°06'0 0.0
2017-Dec-13 09:58N 43°22' W 003°06'0 0.0
2017-Dec-13 09:28N 43°22' W 003°06'0 0.0
2017-Dec-13 08:58N 43°22' W 003°06'0 0.0
2017-Dec-13 08:28N 43°22' W 003°06'0 0.0
2017-Dec-13 07:58N 43°22' W 003°06'0 0.0
2017-Dec-13 07:28N 43°22' W 003°06'0 0.0
2017-Dec-13 06:58N 43°22' W 003°06'0 0.0
2017-Dec-13 06:28N 43°22' W 003°06'0 0.0
2017-Dec-13 05:58N 43°22' W 003°06'0 0.0
2017-Dec-13 05:28N 43°22' W 003°06'0 0.0
2017-Dec-13 04:58N 43°22' W 003°06'0 0.0
2017-Dec-13 04:28N 43°22' W 003°06'0 0.0
2017-Dec-13 03:58N 43°22' W 003°06'0 0.0
2017-Dec-13 03:28N 43°22' W 003°06'0 0.0
2017-Dec-13 02:58N 43°22' W 003°06'0 0.0
2017-Dec-13 02:28N 43°22' W 003°06'0 0.0
2017-Dec-13 01:58N 43°22' W 003°06'0 0.0
2017-Dec-13 01:28N 43°22' W 003°06'0 0.0
2017-Dec-13 00:58N 43°22' W 003°06'0 0.0
2017-Dec-13 00:28N 43°22' W 003°06'0 0.0
2017-Dec-12 23:58N 43°22' W 003°06'0 0.0
2017-Dec-12 23:28N 43°22' W 003°06'0 0.0
2017-Dec-12 22:58N 43°22' W 003°06'0 0.0
2017-Dec-12 22:28N 43°22' W 003°06'0 0.0
2017-Dec-12 21:58N 43°22' W 003°06'0 0.0
2017-Dec-12 21:28N 43°22' W 003°06'0 0.0
2017-Dec-12 20:58N 43°22' W 003°06'0 0.0
2017-Dec-12 20:28N 43°22' W 003°06'0 0.0
2017-Dec-12 19:58N 43°22' W 003°06'0 0.0
2017-Dec-12 19:28N 43°22' W 003°06'0 0.0
2017-Dec-12 18:58N 43°22' W 003°06'0 0.0
2017-Dec-12 18:28N 43°22' W 003°06'0 0.0
2017-Dec-12 17:58N 43°22' W 003°06'0 0.0
2017-Dec-12 17:28N 43°22' W 003°06'0 0.0
2017-Dec-12 16:58N 43°22' W 003°06'0 0.0
2017-Dec-12 16:28N 43°22' W 003°06'0 0.0
2017-Dec-12 15:58N 43°22' W 003°06'0 0.0
2017-Dec-12 15:28N 43°22' W 003°06'0 0.0
2017-Dec-12 14:58N 43°22' W 003°06'0 0.0
2017-Dec-12 14:28N 43°22' W 003°06'0 0.0
2017-Dec-12 13:58N 43°22' W 003°06'0 0.0
2017-Dec-12 13:28N 43°22' W 003°06'0 0.0
2017-Dec-12 12:58N 43°22' W 003°06'0 0.0
2017-Dec-12 12:30N 43°22' W 003°06'0 0.0
2017-Dec-12 12:00N 43°22' W 003°06'1 2.2
2017-Dec-12 11:30N 43°23' W 003°05'5 9.3
2017-Dec-12 11:00N 43°27' W 003°05'2 4.2
2017-Dec-12 10:30N 43°30' W 003°05'1 2.8
2017-Dec-12 10:00N 43°29' W 003°03'1 1.5
2017-Dec-12 09:29N 43°30' W 003°02'2 4.8
2017-Dec-12 09:00N 43°31' W 003°05'3 5.0
2017-Dec-12 08:30N 43°32' W 003°08'3 5.1
2017-Dec-12 08:00N 43°33' W 003°11'3 5.1
2017-Dec-12 07:30N 43°34' W 003°14'2 4.8
2017-Dec-12 07:00N 43°35' W 003°17'2 4.9
2017-Dec-12 06:30N 43°36' W 003°21'2 4.9
2017-Dec-12 06:00N 43°37' W 003°24'2 4.9
2017-Dec-12 05:30N 43°38' W 003°27'2 3.2
2017-Dec-12 05:00N 43°38' W 003°29'1 2.8
2017-Dec-12 04:30N 43°37' W 003°27'1 2.7
2017-Dec-12 04:00N 43°37' W 003°26'1 2.5
2017-Dec-12 03:30N 43°36' W 003°24'1 2.3
2017-Dec-12 03:00N 43°36' W 003°23'1 2.1
2017-Dec-12 02:30N 43°35' W 003°21'1 1.9
2017-Dec-12 02:00N 43°35' W 003°20'1 2.1
2017-Dec-12 01:30N 43°34' W 003°19'1 1.7
2017-Dec-12 01:00N 43°34' W 003°18'1 1.7
2017-Dec-12 00:30N 43°34' W 003°17'1 2.1
2017-Dec-12 00:00N 43°34' W 003°15'1 1.6
2017-Dec-11 23:30N 43°33' W 003°14'1 1.6
2017-Dec-11 23:00N 43°33' W 003°13'1 1.8
2017-Dec-11 22:30N 43°33' W 003°12'1 2.2
2017-Dec-11 22:00N 43°32' W 003°11'1 2.3
2017-Dec-11 21:30N 43°32' W 003°09'1 2.1
2017-Dec-11 20:57N 43°31' W 003°08'1 1.8
2017-Dec-11 20:25N 43°31' W 003°07'1 1.8
2017-Dec-11 20:00N 43°31' W 003°06'1 1.9
2017-Dec-11 19:29N 43°31' W 003°04'1 2.0
2017-Dec-11 18:59N 43°30' W 003°03'1 2.0
2017-Dec-11 18:30N 43°30' W 003°02'2 2.2
2017-Dec-11 17:34N 43°28' W 003°02'0 5.3
2017-Dec-11 17:30N 43°28' W 003°03'3 5.6
2017-Dec-11 17:00N 43°27' W 003°06'4 7.9
2017-Dec-11 16:30N 43°27' W 003°12'713.5
2017-Dec-11 16:00N 43°30' W 003°20'713.4
2017-Dec-11 15:30N 43°34' W 003°27'612.8
2017-Dec-11 15:00N 43°36' W 003°36'713.2
2017-Dec-11 14:30N 43°36' W 003°45'612.9
2017-Dec-11 14:00N 43°36' W 003°54'813.0
2017-Dec-11 13:23N 43°36' W 004°05'512.7
2017-Dec-11 13:00N 43°36' W 004°12'3312.5
2017-Dec-11 10:20N 43°36' W 004°58'612.7
2017-Dec-11 09:50N 43°36' W 005°06'512.7
2017-Dec-11 09:28N 43°36' W 005°13'612.9
2017-Dec-11 08:58N 43°36' W 005°22'612.7
2017-Dec-11 08:29N 43°36' W 005°30'612.4
2017-Dec-11 08:00N 43°34' W 005°38'3 4.9
2017-Dec-11 07:30N 43°33' W 005°41'0 0.3
2017-Dec-11 06:59N 43°33' W 005°41'0 0.0
2017-Dec-11 06:29N 43°33' W 005°41'0 0.0
2017-Dec-11 05:59N 43°33' W 005°41'0 0.0
2017-Dec-11 05:29N 43°33' W 005°41'0 0.0
2017-Dec-11 04:59N 43°33' W 005°41'0 0.0
2017-Dec-11 04:29N 43°33' W 005°41'0 0.0
2017-Dec-11 03:59N 43°33' W 005°41'0 0.0
2017-Dec-11 03:29N 43°33' W 005°41'0 0.0
2017-Dec-11 02:59N 43°33' W 005°41'0 0.0
2017-Dec-11 02:30N 43°33' W 005°41'0 0.0
2017-Dec-11 02:00N 43°33' W 005°41'0 0.0
2017-Dec-11 01:30N 43°33' W 005°41'0 0.0
2017-Dec-11 01:00N 43°33' W 005°41'0 0.0
2017-Dec-11 00:18N 43°33' W 005°41'0 0.0
2017-Dec-10 23:42N 43°33' W 005°41'0 0.0
2017-Dec-10 21:18N 43°33' W 005°41'0 0.0
2017-Dec-10 21:00N 43°33' W 005°41'0 0.0
2017-Dec-10 20:30N 43°33' W 005°41'0 0.0
2017-Dec-10 20:00N 43°33' W 005°41'0 0.0
2017-Dec-10 19:30N 43°33' W 005°41'0 0.0
2017-Dec-10 19:00N 43°33' W 005°41'0 0.0
2017-Dec-10 18:24N 43°33' W 005°41'0 0.0
2017-Dec-10 17:48N 43°33' W 005°41'0 0.0
2017-Dec-10 17:30N 43°33' W 005°41'0 0.0
2017-Dec-10 14:48N 43°33' W 005°41'0 0.0
2017-Dec-10 14:30N 43°33' W 005°41'0 0.0
2017-Dec-10 14:00N 43°33' W 005°41'0 0.0
2017-Dec-10 13:30N 43°33' W 005°41'0 0.0
2017-Dec-10 13:00N 43°33' W 005°41'0 0.0
2017-Dec-10 12:30N 43°33' W 005°41'0 0.0
2017-Dec-10 12:00N 43°33' W 005°41'0 0.0
2017-Dec-10 11:30N 43°33' W 005°41'0 0.0
2017-Dec-10 11:00N 43°33' W 005°41'0 0.0
2017-Dec-10 10:30N 43°33' W 005°41'0 0.0
2017-Dec-10 10:00N 43°33' W 005°41'0 0.0
2017-Dec-10 09:24N 43°33' W 005°41'0 0.0
2017-Dec-10 08:54N 43°33' W 005°41'0 0.0
2017-Dec-10 08:24N 43°33' W 005°41'0 0.0
2017-Dec-10 07:54N 43°33' W 005°41'0 0.0
2017-Dec-10 07:30N 43°33' W 005°41'0 0.0
2017-Dec-10 07:00N 43°33' W 005°41'0 0.0
2017-Dec-10 06:12N 43°33' W 005°41'0 0.0
2017-Dec-10 06:00N 43°33' W 005°41'0 0.0
2017-Dec-10 05:30N 43°33' W 005°41'0 0.0
2017-Dec-10 05:00N 43°33' W 005°41'0 0.0
2017-Dec-10 04:30N 43°33' W 005°41'0 0.0
2017-Dec-10 04:00N 43°33' W 005°41'0 0.0
2017-Dec-10 03:24N 43°33' W 005°41'0 0.0
2017-Dec-10 03:00N 43°33' W 005°41'0 0.0
2017-Dec-10 02:30N 43°33' W 005°41'0 0.0
2017-Dec-10 02:00N 43°33' W 005°41'0 0.0
2017-Dec-10 01:30N 43°33' W 005°41'0 0.0
2017-Dec-10 01:00N 43°33' W 005°41'0 0.0
2017-Dec-09 20:30N 43°33' W 005°41'0 0.0
2017-Dec-09 19:54N 43°33' W 005°41'0 0.0
2017-Dec-09 19:24N 43°33' W 005°41'0 0.0
2017-Dec-09 19:00N 43°33' W 005°41'0 0.0
2017-Dec-09 18:30N 43°33' W 005°41'0 0.0
2017-Dec-09 18:00N 43°33' W 005°41'0 0.0
2017-Dec-09 17:30N 43°33' W 005°41'0 0.0
2017-Dec-09 16:42N 43°33' W 005°41'0 0.0
2017-Dec-09 16:30N 43°33' W 005°41'0 0.0
2017-Dec-09 16:00N 43°33' W 005°41'0 0.0
2017-Dec-09 15:30N 43°33' W 005°41'0 0.0
2017-Dec-09 15:00N 43°33' W 005°41'0 0.0
2017-Dec-09 13:54N 43°33' W 005°41'0 0.0
2017-Dec-09 13:30N 43°33' W 005°41'0 0.0
2017-Dec-09 13:00N 43°33' W 005°41'0 0.0
2017-Dec-09 12:30N 43°33' W 005°41'0 0.0
2017-Dec-09 12:00N 43°33' W 005°41'0 0.0
2017-Dec-09 11:30N 43°33' W 005°41'0 0.0
2017-Dec-09 11:00N 43°33' W 005°41'0 0.0
2017-Dec-09 10:30N 43°33' W 005°41'0 0.0
2017-Dec-09 10:00N 43°33' W 005°41'0 0.0
2017-Dec-09 09:24N 43°33' W 005°41'0 0.0
2017-Dec-09 09:00N 43°33' W 005°41'1 2.2
2017-Dec-09 08:30N 43°34' W 005°40'4 7.8
2017-Dec-09 08:00N 43°38' W 005°41'5 9.2
2017-Dec-09 07:30N 43°41' W 005°45'612.1
2017-Dec-09 07:00N 43°45' W 005°52'612.6
2017-Dec-09 06:30N 43°46' W 006°00'712.7
2017-Dec-09 06:00N 43°46' W 006°09'712.4
2017-Dec-09 05:28N 43°47' W 006°18'4012.0
2017-Dec-09 02:09N 43°51' W 007°13'212.0
2017-Dec-09 01:58N 43°52' W 007°16'612.0
2017-Dec-09 01:30N 43°52' W 007°24'611.9
2017-Dec-09 01:01N 43°53' W 007°32'612.0
2017-Dec-09 00:31N 43°53' W 007°40'612.0
2017-Dec-08 23:59N 43°54' W 007°49'712.1
2017-Dec-08 23:25N 43°55' W 007°58'711.8
2017-Dec-08 22:51N 43°53' W 008°07'  

Dump ship's entire track history